sensor_id;sensor_type;location;lat;lon;timestamp;P1;durP1;ratioP1;P2;durP2;ratioP2
82811;SDS011;72567;55.696;37.960;2023-11-19T00:01:24;29.90;;;12.18;;
82811;SDS011;72567;55.696;37.960;2023-11-19T00:04:25;32.08;;;16.08;;
82811;SDS011;72567;55.696;37.960;2023-11-19T00:07:26;31.67;;;15.43;;
82811;SDS011;72567;55.696;37.960;2023-11-19T00:10:26;28.27;;;11.50;;
82811;SDS011;72567;55.696;37.960;2023-11-19T00:13:27;35.15;;;16.42;;
82811;SDS011;72567;55.696;37.960;2023-11-19T00:16:27;41.78;;;16.52;;
82811;SDS011;72567;55.696;37.960;2023-11-19T00:19:28;36.85;;;16.77;;
82811;SDS011;72567;55.696;37.960;2023-11-19T00:22:28;41.17;;;17.48;;
82811;SDS011;72567;55.696;37.960;2023-11-19T00:25:29;27.33;;;13.20;;
82811;SDS011;72567;55.696;37.960;2023-11-19T00:28:30;38.45;;;16.15;;
82811;SDS011;72567;55.696;37.960;2023-11-19T00:31:30;34.08;;;17.45;;
82811;SDS011;72567;55.696;37.960;2023-11-19T00:34:31;30.73;;;14.80;;
82811;SDS011;72567;55.696;37.960;2023-11-19T00:37:31;40.15;;;16.65;;
82811;SDS011;72567;55.696;37.960;2023-11-19T00:40:32;36.03;;;16.27;;
82811;SDS011;72567;55.696;37.960;2023-11-19T00:43:32;39.55;;;15.65;;
82811;SDS011;72567;55.696;37.960;2023-11-19T00:46:33;30.95;;;14.15;;
82811;SDS011;72567;55.696;37.960;2023-11-19T00:49:34;41.40;;;17.70;;
82811;SDS011;72567;55.696;37.960;2023-11-19T00:52:35;27.30;;;11.27;;
82811;SDS011;72567;55.696;37.960;2023-11-19T00:55:36;36.95;;;14.80;;
82811;SDS011;72567;55.696;37.960;2023-11-19T00:58:37;27.33;;;14.60;;
82811;SDS011;72567;55.696;37.960;2023-11-19T01:01:38;40.22;;;16.55;;
82811;SDS011;72567;55.696;37.960;2023-11-19T01:04:38;29.65;;;13.80;;
82811;SDS011;72567;55.696;37.960;2023-11-19T01:07:39;28.20;;;13.93;;
82811;SDS011;72567;55.696;37.960;2023-11-19T01:10:40;34.97;;;15.55;;
82811;SDS011;72567;55.696;37.960;2023-11-19T01:13:40;29.38;;;14.50;;
82811;SDS011;72567;55.696;37.960;2023-11-19T01:16:41;29.52;;;13.55;;
82811;SDS011;72567;55.696;37.960;2023-11-19T01:19:41;26.50;;;14.02;;
82811;SDS011;72567;55.696;37.960;2023-11-19T01:22:42;39.85;;;15.52;;
82811;SDS011;72567;55.696;37.960;2023-11-19T01:25:43;29.52;;;13.77;;
82811;SDS011;72567;55.696;37.960;2023-11-19T01:28:44;35.78;;;15.15;;
82811;SDS011;72567;55.696;37.960;2023-11-19T01:31:46;28.98;;;14.43;;
82811;SDS011;72567;55.696;37.960;2023-11-19T01:34:51;35.33;;;16.27;;
82811;SDS011;72567;55.696;37.960;2023-11-19T01:37:52;35.67;;;14.00;;
82811;SDS011;72567;55.696;37.960;2023-11-19T01:40:55;29.23;;;15.95;;
82811;SDS011;72567;55.696;37.960;2023-11-19T01:43:57;36.58;;;15.95;;
82811;SDS011;72567;55.696;37.960;2023-11-19T01:46:59;37.80;;;15.82;;
82811;SDS011;72567;55.696;37.960;2023-11-19T01:50:01;32.90;;;16.35;;
82811;SDS011;72567;55.696;37.960;2023-11-19T01:53:04;43.40;;;18.60;;
82811;SDS011;72567;55.696;37.960;2023-11-19T01:56:05;27.73;;;14.23;;
82811;SDS011;72567;55.696;37.960;2023-11-19T01:59:09;36.05;;;14.43;;
82811;SDS011;72567;55.696;37.960;2023-11-19T02:02:13;36.15;;;15.10;;
82811;SDS011;72567;55.696;37.960;2023-11-19T02:05:13;37.63;;;16.40;;
82811;SDS011;72567;55.696;37.960;2023-11-19T02:08:14;38.72;;;16.42;;
82811;SDS011;72567;55.696;37.960;2023-11-19T02:11:15;36.55;;;17.80;;
82811;SDS011;72567;55.696;37.960;2023-11-19T02:14:15;39.28;;;14.80;;
82811;SDS011;72567;55.696;37.960;2023-11-19T02:17:26;35.80;;;15.45;;
82811;SDS011;72567;55.696;37.960;2023-11-19T02:20:28;38.38;;;15.43;;
82811;SDS011;72567;55.696;37.960;2023-11-19T02:23:28;32.95;;;15.50;;
82811;SDS011;72567;55.696;37.960;2023-11-19T02:26:33;35.53;;;14.75;;
82811;SDS011;72567;55.696;37.960;2023-11-19T02:29:48;40.03;;;13.23;;
82811;SDS011;72567;55.696;37.960;2023-11-19T02:32:48;27.73;;;15.70;;
82811;SDS011;72567;55.696;37.960;2023-11-19T02:35:49;33.22;;;13.15;;
82811;SDS011;72567;55.696;37.960;2023-11-19T02:38:49;33.05;;;14.38;;
82811;SDS011;72567;55.696;37.960;2023-11-19T02:41:50;37.97;;;14.50;;
82811;SDS011;72567;55.696;37.960;2023-11-19T02:44:52;27.48;;;14.20;;
82811;SDS011;72567;55.696;37.960;2023-11-19T02:47:53;30.13;;;11.88;;
82811;SDS011;72567;55.696;37.960;2023-11-19T02:50:55;33.33;;;14.02;;
82811;SDS011;72567;55.696;37.960;2023-11-19T02:53:58;34.78;;;15.82;;
82811;SDS011;72567;55.696;37.960;2023-11-19T02:56:58;25.40;;;14.30;;
82811;SDS011;72567;55.696;37.960;2023-11-19T03:00:01;30.67;;;12.50;;
82811;SDS011;72567;55.696;37.960;2023-11-19T03:03:12;34.58;;;14.57;;
82811;SDS011;72567;55.696;37.960;2023-11-19T03:06:20;34.88;;;13.88;;
82811;SDS011;72567;55.696;37.960;2023-11-19T03:09:24;28.60;;;13.68;;
82811;SDS011;72567;55.696;37.960;2023-11-19T03:12:25;31.48;;;16.25;;
82811;SDS011;72567;55.696;37.960;2023-11-19T03:15:26;38.50;;;17.30;;
82811;SDS011;72567;55.696;37.960;2023-11-19T03:18:27;39.50;;;17.05;;
82811;SDS011;72567;55.696;37.960;2023-11-19T03:21:29;37.30;;;16.08;;
82811;SDS011;72567;55.696;37.960;2023-11-19T03:24:29;36.47;;;15.60;;
82811;SDS011;72567;55.696;37.960;2023-11-19T03:27:30;28.50;;;14.70;;
82811;SDS011;72567;55.696;37.960;2023-11-19T03:30:31;36.72;;;16.20;;
82811;SDS011;72567;55.696;37.960;2023-11-19T03:33:32;39.15;;;15.98;;
82811;SDS011;72567;55.696;37.960;2023-11-19T03:36:33;33.72;;;16.70;;
82811;SDS011;72567;55.696;37.960;2023-11-19T03:39:34;39.58;;;15.63;;
82811;SDS011;72567;55.696;37.960;2023-11-19T03:42:34;33.47;;;16.23;;
82811;SDS011;72567;55.696;37.960;2023-11-19T03:45:35;34.28;;;17.90;;
82811;SDS011;72567;55.696;37.960;2023-11-19T03:48:36;34.17;;;17.02;;
82811;SDS011;72567;55.696;37.960;2023-11-19T03:51:36;39.25;;;18.20;;
82811;SDS011;72567;55.696;37.960;2023-11-19T03:54:37;36.08;;;18.35;;
82811;SDS011;72567;55.696;37.960;2023-11-19T03:57:38;32.15;;;13.23;;
82811;SDS011;72567;55.696;37.960;2023-11-19T04:00:39;36.85;;;17.00;;
82811;SDS011;72567;55.696;37.960;2023-11-19T04:03:41;34.17;;;15.93;;
82811;SDS011;72567;55.696;37.960;2023-11-19T04:06:41;37.70;;;17.70;;
82811;SDS011;72567;55.696;37.960;2023-11-19T04:09:42;39.08;;;16.75;;
82811;SDS011;72567;55.696;37.960;2023-11-19T04:12:42;36.60;;;15.98;;
82811;SDS011;72567;55.696;37.960;2023-11-19T04:15:43;29.48;;;14.93;;
82811;SDS011;72567;55.696;37.960;2023-11-19T04:18:44;29.38;;;13.85;;
82811;SDS011;72567;55.696;37.960;2023-11-19T04:21:44;33.08;;;15.57;;
82811;SDS011;72567;55.696;37.960;2023-11-19T04:24:46;38.92;;;17.85;;
82811;SDS011;72567;55.696;37.960;2023-11-19T04:27:46;41.28;;;14.82;;
82811;SDS011;72567;55.696;37.960;2023-11-19T04:30:48;42.97;;;19.65;;
82811;SDS011;72567;55.696;37.960;2023-11-19T04:33:48;49.78;;;24.90;;
82811;SDS011;72567;55.696;37.960;2023-11-19T04:36:49;49.80;;;22.00;;
82811;SDS011;72567;55.696;37.960;2023-11-19T04:39:50;47.80;;;19.17;;
82811;SDS011;72567;55.696;37.960;2023-11-19T04:42:51;40.03;;;16.33;;
82811;SDS011;72567;55.696;37.960;2023-11-19T04:45:51;38.30;;;16.85;;
82811;SDS011;72567;55.696;37.960;2023-11-19T04:48:52;38.58;;;16.60;;
82811;SDS011;72567;55.696;37.960;2023-11-19T04:51:53;35.60;;;15.43;;
82811;SDS011;72567;55.696;37.960;2023-11-19T04:54:53;33.03;;;14.02;;
82811;SDS011;72567;55.696;37.960;2023-11-19T04:57:54;32.70;;;16.25;;
82811;SDS011;72567;55.696;37.960;2023-11-19T05:00:55;31.35;;;13.85;;
82811;SDS011;72567;55.696;37.960;2023-11-19T05:03:56;34.25;;;14.73;;
82811;SDS011;72567;55.696;37.960;2023-11-19T05:07:00;39.30;;;18.05;;
82811;SDS011;72567;55.696;37.960;2023-11-19T05:10:01;40.33;;;16.50;;
82811;SDS011;72567;55.696;37.960;2023-11-19T05:13:03;30.58;;;14.98;;
82811;SDS011;72567;55.696;37.960;2023-11-19T05:16:04;37.22;;;15.88;;
82811;SDS011;72567;55.696;37.960;2023-11-19T05:19:05;29.73;;;15.40;;
82811;SDS011;72567;55.696;37.960;2023-11-19T05:22:05;37.67;;;16.27;;
82811;SDS011;72567;55.696;37.960;2023-11-19T05:25:06;42.35;;;17.95;;
82811;SDS011;72567;55.696;37.960;2023-11-19T05:28:07;36.72;;;15.88;;
82811;SDS011;72567;55.696;37.960;2023-11-19T05:31:08;34.50;;;15.75;;
82811;SDS011;72567;55.696;37.960;2023-11-19T05:34:08;30.60;;;14.52;;
82811;SDS011;72567;55.696;37.960;2023-11-19T05:37:09;28.33;;;13.98;;
82811;SDS011;72567;55.696;37.960;2023-11-19T05:40:10;37.47;;;16.85;;
82811;SDS011;72567;55.696;37.960;2023-11-19T05:43:15;30.38;;;13.07;;
82811;SDS011;72567;55.696;37.960;2023-11-19T05:46:16;26.88;;;13.65;;
82811;SDS011;72567;55.696;37.960;2023-11-19T05:49:17;38.08;;;14.93;;
82811;SDS011;72567;55.696;37.960;2023-11-19T05:52:18;26.30;;;11.05;;
82811;SDS011;72567;55.696;37.960;2023-11-19T05:55:18;29.33;;;13.48;;
82811;SDS011;72567;55.696;37.960;2023-11-19T05:58:19;23.65;;;13.27;;
82811;SDS011;72567;55.696;37.960;2023-11-19T06:01:20;31.77;;;12.82;;
82811;SDS011;72567;55.696;37.960;2023-11-19T06:04:21;25.17;;;12.63;;
82811;SDS011;72567;55.696;37.960;2023-11-19T06:07:21;29.80;;;12.50;;
82811;SDS011;72567;55.696;37.960;2023-11-19T06:10:22;39.97;;;15.68;;
82811;SDS011;72567;55.696;37.960;2023-11-19T06:13:24;30.80;;;14.43;;
82811;SDS011;72567;55.696;37.960;2023-11-19T06:16:26;36.25;;;15.45;;
82811;SDS011;72567;55.696;37.960;2023-11-19T06:19:26;34.22;;;16.77;;
82811;SDS011;72567;55.696;37.960;2023-11-19T06:22:27;33.08;;;16.25;;
82811;SDS011;72567;55.696;37.960;2023-11-19T06:25:27;34.42;;;16.70;;
82811;SDS011;72567;55.696;37.960;2023-11-19T06:28:28;31.88;;;15.02;;
82811;SDS011;72567;55.696;37.960;2023-11-19T06:31:29;36.45;;;15.75;;
82811;SDS011;72567;55.696;37.960;2023-11-19T06:34:29;37.17;;;16.15;;
82811;SDS011;72567;55.696;37.960;2023-11-19T06:37:30;38.45;;;16.55;;
82811;SDS011;72567;55.696;37.960;2023-11-19T06:40:31;34.83;;;13.95;;
82811;SDS011;72567;55.696;37.960;2023-11-19T06:43:32;33.85;;;14.15;;
82811;SDS011;72567;55.696;37.960;2023-11-19T06:46:33;31.10;;;16.02;;
82811;SDS011;72567;55.696;37.960;2023-11-19T06:49:34;35.30;;;15.23;;
82811;SDS011;72567;55.696;37.960;2023-11-19T06:52:35;35.45;;;16.35;;
82811;SDS011;72567;55.696;37.960;2023-11-19T06:55:37;34.03;;;14.50;;
82811;SDS011;72567;55.696;37.960;2023-11-19T06:58:37;28.48;;;13.52;;
82811;SDS011;72567;55.696;37.960;2023-11-19T07:01:38;31.35;;;15.07;;
82811;SDS011;72567;55.696;37.960;2023-11-19T07:04:40;29.45;;;13.80;;
82811;SDS011;72567;55.696;37.960;2023-11-19T07:07:40;39.03;;;14.20;;
82811;SDS011;72567;55.696;37.960;2023-11-19T07:10:43;34.17;;;14.38;;
82811;SDS011;72567;55.696;37.960;2023-11-19T07:13:44;33.35;;;14.40;;
82811;SDS011;72567;55.696;37.960;2023-11-19T07:16:46;36.75;;;13.90;;
82811;SDS011;72567;55.696;37.960;2023-11-19T07:19:47;36.95;;;15.93;;
82811;SDS011;72567;55.696;37.960;2023-11-19T07:22:49;32.00;;;16.00;;
82811;SDS011;72567;55.696;37.960;2023-11-19T07:25:50;35.17;;;15.90;;
82811;SDS011;72567;55.696;37.960;2023-11-19T07:28:53;38.85;;;15.00;;
82811;SDS011;72567;55.696;37.960;2023-11-19T07:31:55;35.83;;;15.20;;
82811;SDS011;72567;55.696;37.960;2023-11-19T07:34:56;30.25;;;16.83;;
82811;SDS011;72567;55.696;37.960;2023-11-19T07:37:57;37.40;;;17.77;;
82811;SDS011;72567;55.696;37.960;2023-11-19T07:40:57;41.45;;;17.48;;
82811;SDS011;72567;55.696;37.960;2023-11-19T07:43:58;37.72;;;17.65;;
82811;SDS011;72567;55.696;37.960;2023-11-19T07:46:59;31.25;;;16.55;;
82811;SDS011;72567;55.696;37.960;2023-11-19T07:49:59;35.67;;;16.02;;
82811;SDS011;72567;55.696;37.960;2023-11-19T07:53:00;32.55;;;15.98;;
82811;SDS011;72567;55.696;37.960;2023-11-19T07:56:02;32.65;;;14.48;;
82811;SDS011;72567;55.696;37.960;2023-11-19T07:59:03;29.23;;;14.57;;
82811;SDS011;72567;55.696;37.960;2023-11-19T08:02:04;24.05;;;11.95;;
82811;SDS011;72567;55.696;37.960;2023-11-19T08:05:05;26.23;;;12.85;;
82811;SDS011;72567;55.696;37.960;2023-11-19T08:08:06;24.40;;;10.75;;
82811;SDS011;72567;55.696;37.960;2023-11-19T08:11:07;19.15;;;12.30;;
82811;SDS011;72567;55.696;37.960;2023-11-19T08:14:07;20.75;;;11.10;;
82811;SDS011;72567;55.696;37.960;2023-11-19T08:17:08;20.67;;;10.73;;
82811;SDS011;72567;55.696;37.960;2023-11-19T08:20:09;18.60;;;10.23;;
82811;SDS011;72567;55.696;37.960;2023-11-19T08:23:10;21.90;;;9.57;;
82811;SDS011;72567;55.696;37.960;2023-11-19T08:26:11;17.98;;;9.30;;
82811;SDS011;72567;55.696;37.960;2023-11-19T08:29:11;18.73;;;8.50;;
82811;SDS011;72567;55.696;37.960;2023-11-19T08:32:13;18.10;;;9.40;;
82811;SDS011;72567;55.696;37.960;2023-11-19T08:35:14;13.15;;;7.47;;
82811;SDS011;72567;55.696;37.960;2023-11-19T08:38:16;13.35;;;7.05;;
82811;SDS011;72567;55.696;37.960;2023-11-19T08:41:16;13.57;;;6.53;;
82811;SDS011;72567;55.696;37.960;2023-11-19T08:44:21;13.93;;;7.95;;
82811;SDS011;72567;55.696;37.960;2023-11-19T08:47:21;12.70;;;7.43;;
82811;SDS011;72567;55.696;37.960;2023-11-19T08:50:23;15.02;;;8.00;;
82811;SDS011;72567;55.696;37.960;2023-11-19T08:53:24;13.02;;;6.20;;
82811;SDS011;72567;55.696;37.960;2023-11-19T08:56:24;14.85;;;8.00;;
82811;SDS011;72567;55.696;37.960;2023-11-19T08:59:25;12.68;;;5.93;;
82811;SDS011;72567;55.696;37.960;2023-11-19T09:02:26;11.48;;;6.40;;
82811;SDS011;72567;55.696;37.960;2023-11-19T09:05:26;13.50;;;6.00;;
82811;SDS011;72567;55.696;37.960;2023-11-19T09:08:27;17.67;;;8.77;;
82811;SDS011;72567;55.696;37.960;2023-11-19T09:11:28;14.50;;;6.35;;
82811;SDS011;72567;55.696;37.960;2023-11-19T09:14:29;17.17;;;8.00;;
82811;SDS011;72567;55.696;37.960;2023-11-19T09:17:30;11.77;;;5.93;;
82811;SDS011;72567;55.696;37.960;2023-11-19T09:20:31;9.13;;;5.25;;
82811;SDS011;72567;55.696;37.960;2023-11-19T09:23:37;8.93;;;5.20;;
82811;SDS011;72567;55.696;37.960;2023-11-19T09:26:39;10.90;;;4.85;;
82811;SDS011;72567;55.696;37.960;2023-11-19T09:29:41;11.77;;;5.30;;
82811;SDS011;72567;55.696;37.960;2023-11-19T09:32:43;10.23;;;5.40;;
82811;SDS011;72567;55.696;37.960;2023-11-19T09:35:43;6.93;;;3.60;;
82811;SDS011;72567;55.696;37.960;2023-11-19T09:38:44;9.95;;;5.25;;
82811;SDS011;72567;55.696;37.960;2023-11-19T09:41:45;10.40;;;4.53;;
82811;SDS011;72567;55.696;37.960;2023-11-19T09:44:46;15.55;;;6.38;;
82811;SDS011;72567;55.696;37.960;2023-11-19T09:47:48;10.07;;;5.57;;
82811;SDS011;72567;55.696;37.960;2023-11-19T09:50:52;10.52;;;5.28;;
82811;SDS011;72567;55.696;37.960;2023-11-19T09:53:53;13.05;;;4.80;;
82811;SDS011;72567;55.696;37.960;2023-11-19T09:56:54;11.43;;;5.50;;
82811;SDS011;72567;55.696;37.960;2023-11-19T09:59:59;10.60;;;5.20;;
82811;SDS011;72567;55.696;37.960;2023-11-19T10:03:00;11.63;;;5.63;;
82811;SDS011;72567;55.696;37.960;2023-11-19T10:06:01;11.63;;;5.70;;
82811;SDS011;72567;55.696;37.960;2023-11-19T10:09:02;11.50;;;5.40;;
82811;SDS011;72567;55.696;37.960;2023-11-19T10:12:05;12.38;;;5.78;;
82811;SDS011;72567;55.696;37.960;2023-11-19T10:15:06;10.98;;;4.63;;
82811;SDS011;72567;55.696;37.960;2023-11-19T10:21:14;13.35;;;5.90;;
82811;SDS011;72567;55.696;37.960;2023-11-19T10:24:23;9.55;;;4.18;;
82811;SDS011;72567;55.696;37.960;2023-11-19T10:27:34;12.05;;;4.68;;
82811;SDS011;72567;55.696;37.960;2023-11-19T10:30:34;13.25;;;5.20;;
82811;SDS011;72567;55.696;37.960;2023-11-19T10:33:35;8.35;;;4.05;;
82811;SDS011;72567;55.696;37.960;2023-11-19T10:36:41;10.88;;;5.07;;
82811;SDS011;72567;55.696;37.960;2023-11-19T10:39:52;11.32;;;4.70;;
82811;SDS011;72567;55.696;37.960;2023-11-19T10:43:03;7.70;;;3.90;;
82811;SDS011;72567;55.696;37.960;2023-11-19T10:46:08;9.55;;;4.75;;
82811;SDS011;72567;55.696;37.960;2023-11-19T10:49:10;13.05;;;4.80;;
82811;SDS011;72567;55.696;37.960;2023-11-19T10:52:11;15.23;;;6.68;;
82811;SDS011;72567;55.696;37.960;2023-11-19T10:55:12;13.90;;;5.93;;
82811;SDS011;72567;55.696;37.960;2023-11-19T10:58:15;12.10;;;5.40;;
82811;SDS011;72567;55.696;37.960;2023-11-19T11:01:19;13.77;;;5.80;;
82811;SDS011;72567;55.696;37.960;2023-11-19T11:04:24;8.82;;;4.55;;
82811;SDS011;72567;55.696;37.960;2023-11-19T11:07:26;9.35;;;5.20;;
82811;SDS011;72567;55.696;37.960;2023-11-19T11:10:27;12.05;;;5.50;;
82811;SDS011;72567;55.696;37.960;2023-11-19T11:13:29;9.55;;;4.65;;
82811;SDS011;72567;55.696;37.960;2023-11-19T11:16:31;14.68;;;6.38;;
82811;SDS011;72567;55.696;37.960;2023-11-19T11:19:31;14.43;;;6.78;;
82811;SDS011;72567;55.696;37.960;2023-11-19T11:22:34;8.05;;;4.70;;
82811;SDS011;72567;55.696;37.960;2023-11-19T11:25:52;8.77;;;5.25;;
82811;SDS011;72567;55.696;37.960;2023-11-19T11:32:06;16.27;;;8.88;;
82811;SDS011;72567;55.696;37.960;2023-11-19T11:38:29;20.35;;;9.35;;
82811;SDS011;72567;55.696;37.960;2023-11-19T11:41:30;21.30;;;9.07;;
82811;SDS011;72567;55.696;37.960;2023-11-19T11:48:10;16.45;;;8.00;;
82811;SDS011;72567;55.696;37.960;2023-11-19T11:51:11;17.27;;;8.48;;
82811;SDS011;72567;55.696;37.960;2023-11-19T11:57:19;16.98;;;7.93;;
82811;SDS011;72567;55.696;37.960;2023-11-19T12:00:22;11.65;;;5.40;;
82811;SDS011;72567;55.696;37.960;2023-11-19T12:03:28;16.17;;;7.63;;
82811;SDS011;72567;55.696;37.960;2023-11-19T12:06:32;12.55;;;7.30;;
82811;SDS011;72567;55.696;37.960;2023-11-19T12:09:33;12.10;;;6.90;;
82811;SDS011;72567;55.696;37.960;2023-11-19T12:12:33;10.35;;;6.55;;
82811;SDS011;72567;55.696;37.960;2023-11-19T12:16:06;16.02;;;6.82;;
82811;SDS011;72567;55.696;37.960;2023-11-19T12:18:56;10.95;;;6.57;;
82811;SDS011;72567;55.696;37.960;2023-11-19T12:22:09;14.75;;;7.07;;
82811;SDS011;72567;55.696;37.960;2023-11-19T12:25:11;15.48;;;7.28;;
82811;SDS011;72567;55.696;37.960;2023-11-19T12:28:12;17.63;;;9.27;;
82811;SDS011;72567;55.696;37.960;2023-11-19T12:31:13;17.20;;;8.43;;
82811;SDS011;72567;55.696;37.960;2023-11-19T12:34:14;16.55;;;7.45;;
82811;SDS011;72567;55.696;37.960;2023-11-19T12:37:15;16.80;;;6.93;;
82811;SDS011;72567;55.696;37.960;2023-11-19T12:40:18;15.98;;;7.43;;
82811;SDS011;72567;55.696;37.960;2023-11-19T12:43:21;15.25;;;7.47;;
82811;SDS011;72567;55.696;37.960;2023-11-19T12:46:25;13.65;;;7.63;;
82811;SDS011;72567;55.696;37.960;2023-11-19T12:49:27;16.05;;;7.25;;
82811;SDS011;72567;55.696;37.960;2023-11-19T12:52:28;14.05;;;7.10;;
82811;SDS011;72567;55.696;37.960;2023-11-19T12:55:29;13.32;;;7.40;;
82811;SDS011;72567;55.696;37.960;2023-11-19T12:58:36;16.73;;;6.80;;
82811;SDS011;72567;55.696;37.960;2023-11-19T13:01:36;12.60;;;7.80;;
82811;SDS011;72567;55.696;37.960;2023-11-19T13:04:38;14.70;;;7.97;;
82811;SDS011;72567;55.696;37.960;2023-11-19T13:07:39;14.50;;;6.95;;
82811;SDS011;72567;55.696;37.960;2023-11-19T13:16:55;15.73;;;9.13;;
82811;SDS011;72567;55.696;37.960;2023-11-19T13:19:56;18.08;;;8.05;;
82811;SDS011;72567;55.696;37.960;2023-11-19T13:23:01;13.05;;;7.88;;
82811;SDS011;72567;55.696;37.960;2023-11-19T13:26:05;18.77;;;8.75;;
82811;SDS011;72567;55.696;37.960;2023-11-19T13:29:06;20.17;;;9.13;;
82811;SDS011;72567;55.696;37.960;2023-11-19T13:32:07;15.15;;;8.13;;
82811;SDS011;72567;55.696;37.960;2023-11-19T13:35:12;14.32;;;7.20;;
82811;SDS011;72567;55.696;37.960;2023-11-19T13:38:13;15.15;;;7.20;;
82811;SDS011;72567;55.696;37.960;2023-11-19T13:41:14;10.50;;;5.78;;
82811;SDS011;72567;55.696;37.960;2023-11-19T13:44:18;19.58;;;8.18;;
82811;SDS011;72567;55.696;37.960;2023-11-19T13:47:18;20.38;;;9.50;;
82811;SDS011;72567;55.696;37.960;2023-11-19T13:50:19;18.52;;;7.97;;
82811;SDS011;72567;55.696;37.960;2023-11-19T13:53:20;15.98;;;7.78;;
82811;SDS011;72567;55.696;37.960;2023-11-19T13:56:21;15.77;;;8.25;;
82811;SDS011;72567;55.696;37.960;2023-11-19T13:59:21;16.55;;;7.00;;
82811;SDS011;72567;55.696;37.960;2023-11-19T14:02:22;20.23;;;7.78;;
82811;SDS011;72567;55.696;37.960;2023-11-19T14:05:22;17.08;;;6.90;;
82811;SDS011;72567;55.696;37.960;2023-11-19T14:08:23;13.88;;;7.47;;
82811;SDS011;72567;55.696;37.960;2023-11-19T14:11:24;18.45;;;8.25;;
82811;SDS011;72567;55.696;37.960;2023-11-19T14:14:24;18.85;;;8.85;;
82811;SDS011;72567;55.696;37.960;2023-11-19T14:17:25;10.23;;;5.57;;
82811;SDS011;72567;55.696;37.960;2023-11-19T14:20:25;16.02;;;7.53;;
82811;SDS011;72567;55.696;37.960;2023-11-19T14:23:26;17.55;;;10.18;;
82811;SDS011;72567;55.696;37.960;2023-11-19T14:26:45;27.63;;;14.50;;
82811;SDS011;72567;55.696;37.960;2023-11-19T14:29:47;25.55;;;10.23;;
82811;SDS011;72567;55.696;37.960;2023-11-19T14:32:48;23.17;;;10.82;;
82811;SDS011;72567;55.696;37.960;2023-11-19T14:35:49;19.83;;;9.88;;
82811;SDS011;72567;55.696;37.960;2023-11-19T14:38:50;20.63;;;9.70;;
82811;SDS011;72567;55.696;37.960;2023-11-19T14:41:51;18.17;;;9.52;;
82811;SDS011;72567;55.696;37.960;2023-11-19T14:44:52;24.17;;;10.63;;
82811;SDS011;72567;55.696;37.960;2023-11-19T14:47:53;20.50;;;10.93;;
82811;SDS011;72567;55.696;37.960;2023-11-19T14:50:54;14.13;;;6.95;;
82811;SDS011;72567;55.696;37.960;2023-11-19T14:53:55;17.02;;;6.28;;
82811;SDS011;72567;55.696;37.960;2023-11-19T14:56:56;18.00;;;8.10;;
82811;SDS011;72567;55.696;37.960;2023-11-19T14:59:57;16.63;;;8.63;;
82811;SDS011;72567;55.696;37.960;2023-11-19T15:02:57;17.13;;;8.75;;
82811;SDS011;72567;55.696;37.960;2023-11-19T15:06:02;23.48;;;10.57;;
82811;SDS011;72567;55.696;37.960;2023-11-19T15:09:03;29.58;;;10.43;;
82811;SDS011;72567;55.696;37.960;2023-11-19T15:12:05;21.27;;;9.73;;
82811;SDS011;72567;55.696;37.960;2023-11-19T15:15:06;14.35;;;7.60;;
82811;SDS011;72567;55.696;37.960;2023-11-19T15:18:08;15.48;;;8.13;;
82811;SDS011;72567;55.696;37.960;2023-11-19T15:21:16;14.23;;;7.38;;
82811;SDS011;72567;55.696;37.960;2023-11-19T15:24:19;24.23;;;10.88;;
82811;SDS011;72567;55.696;37.960;2023-11-19T15:27:20;20.02;;;10.10;;
82811;SDS011;72567;55.696;37.960;2023-11-19T15:30:20;12.85;;;6.63;;
82811;SDS011;72567;55.696;37.960;2023-11-19T15:33:21;20.70;;;10.13;;
82811;SDS011;72567;55.696;37.960;2023-11-19T15:36:22;18.35;;;9.95;;
82811;SDS011;72567;55.696;37.960;2023-11-19T15:39:23;21.27;;;11.20;;
82811;SDS011;72567;55.696;37.960;2023-11-19T15:42:24;20.13;;;10.75;;
82811;SDS011;72567;55.696;37.960;2023-11-19T15:45:24;24.30;;;12.25;;
82811;SDS011;72567;55.696;37.960;2023-11-19T15:48:25;23.20;;;11.27;;
82811;SDS011;72567;55.696;37.960;2023-11-19T15:51:26;21.15;;;10.88;;
82811;SDS011;72567;55.696;37.960;2023-11-19T15:54:26;24.38;;;12.45;;
82811;SDS011;72567;55.696;37.960;2023-11-19T15:57:27;17.88;;;7.82;;
82811;SDS011;72567;55.696;37.960;2023-11-19T16:00:27;18.00;;;9.32;;
82811;SDS011;72567;55.696;37.960;2023-11-19T16:03:28;18.83;;;10.50;;
82811;SDS011;72567;55.696;37.960;2023-11-19T16:06:30;26.17;;;10.55;;
82811;SDS011;72567;55.696;37.960;2023-11-19T16:09:31;24.55;;;10.35;;
82811;SDS011;72567;55.696;37.960;2023-11-19T16:12:32;29.33;;;11.57;;
82811;SDS011;72567;55.696;37.960;2023-11-19T16:15:32;21.52;;;10.68;;
82811;SDS011;72567;55.696;37.960;2023-11-19T16:18:34;19.55;;;9.93;;
82811;SDS011;72567;55.696;37.960;2023-11-19T16:21:35;24.58;;;10.52;;
82811;SDS011;72567;55.696;37.960;2023-11-19T16:24:35;31.48;;;13.55;;
82811;SDS011;72567;55.696;37.960;2023-11-19T16:27:39;23.42;;;11.23;;
82811;SDS011;72567;55.696;37.960;2023-11-19T16:30:39;22.58;;;10.82;;
82811;SDS011;72567;55.696;37.960;2023-11-19T16:33:41;23.88;;;12.18;;
82811;SDS011;72567;55.696;37.960;2023-11-19T16:36:41;25.40;;;10.75;;
82811;SDS011;72567;55.696;37.960;2023-11-19T16:39:43;23.65;;;11.88;;
82811;SDS011;72567;55.696;37.960;2023-11-19T16:42:44;26.92;;;12.98;;
82811;SDS011;72567;55.696;37.960;2023-11-19T16:45:48;25.65;;;10.80;;
82811;SDS011;72567;55.696;37.960;2023-11-19T16:48:49;28.30;;;12.32;;
82811;SDS011;72567;55.696;37.960;2023-11-19T16:51:50;25.02;;;11.13;;
82811;SDS011;72567;55.696;37.960;2023-11-19T16:54:50;21.08;;;9.18;;
82811;SDS011;72567;55.696;37.960;2023-11-19T16:57:54;18.27;;;11.50;;
82811;SDS011;72567;55.696;37.960;2023-11-19T17:00:55;26.33;;;11.05;;
82811;SDS011;72567;55.696;37.960;2023-11-19T17:03:57;11.55;;;6.18;;
82811;SDS011;72567;55.696;37.960;2023-11-19T17:06:58;25.30;;;10.10;;
82811;SDS011;72567;55.696;37.960;2023-11-19T17:09:58;22.83;;;11.73;;
82811;SDS011;72567;55.696;37.960;2023-11-19T17:12:59;23.52;;;10.95;;
82811;SDS011;72567;55.696;37.960;2023-11-19T17:16:00;26.77;;;13.65;;
82811;SDS011;72567;55.696;37.960;2023-11-19T17:19:01;26.20;;;12.95;;
82811;SDS011;72567;55.696;37.960;2023-11-19T17:22:01;27.80;;;14.98;;
82811;SDS011;72567;55.696;37.960;2023-11-19T17:25:03;28.27;;;14.50;;
82811;SDS011;72567;55.696;37.960;2023-11-19T17:28:05;24.02;;;12.07;;
82811;SDS011;72567;55.696;37.960;2023-11-19T17:31:07;30.15;;;12.65;;
82811;SDS011;72567;55.696;37.960;2023-11-19T17:34:08;29.35;;;14.13;;
82811;SDS011;72567;55.696;37.960;2023-11-19T17:37:09;28.05;;;13.73;;
82811;SDS011;72567;55.696;37.960;2023-11-19T17:40:10;24.17;;;11.00;;
82811;SDS011;72567;55.696;37.960;2023-11-19T17:43:13;24.58;;;10.93;;
82811;SDS011;72567;55.696;37.960;2023-11-19T17:46:15;21.08;;;10.93;;
82811;SDS011;72567;55.696;37.960;2023-11-19T17:49:16;26.55;;;11.77;;
82811;SDS011;72567;55.696;37.960;2023-11-19T17:52:17;25.27;;;12.27;;
82811;SDS011;72567;55.696;37.960;2023-11-19T17:55:18;26.48;;;11.30;;